Time;durP1;ratioP1;P1;durP2;ratioP2;P2;SDS_P1;SDS_P2;PMS_P1;PMS_P2;Temp;Humidity;BMP_temperature;BMP_pressure;BME280_temperature;BME280_humidity;BME280_pressure;Samples;Min_cycle;Max_cycle;Signal;HPM_P1;HPM_P2
2021/01/01 00:00:39;;;;;;;33.13;25.92;;;9.20;81.20;;;;;;5101268;28;20498;-51
2021/01/01 00:03:05;;;;;;;37.20;27.23;;;9.20;81.20;;;;;;5111510;28;20588;-46
2021/01/01 00:05:31;;;;;;;35.15;27.17;;;9.20;81.20;;;;;;5114796;28;20055;-46
2021/01/01 00:07:56;;;;;;;36.45;28.10;;;9.10;81.10;;;;;;5103134;28;20433;-45
2021/01/01 00:10:22;;;;;;;34.80;26.63;;;9.10;81.20;;;;;;5107258;28;20097;-50
2021/01/01 00:12:48;;;;;;;34.13;26.45;;;9.20;81.20;;;;;;5097009;28;20142;-47
2021/01/01 00:15:14;;;;;;;35.80;27.15;;;9.10;81.20;;;;;;5110255;28;20047;-47
2021/01/01 00:17:41;;;;;;;38.83;27.95;;;9.20;81.20;;;;;;5117234;28;20055;-44
2021/01/01 00:20:08;;;;;;;38.53;28.92;;;9.10;81.20;;;;;;5110848;28;20115;-47
2021/01/01 00:22:34;;;;;;;35.72;26.25;;;9.10;81.20;;;;;;5097047;28;20434;-42
2021/01/01 00:25:00;;;;;;;36.17;28.50;;;9.10;81.20;;;;;;5102048;28;20064;-51
2021/01/01 00:27:29;;;;;;;37.58;27.50;;;9.10;81.20;;;;;;5097400;28;20094;-49
2021/01/01 00:29:56;;;;;;;34.65;27.27;;;9.10;81.30;;;;;;5109459;28;20530;-45
2021/01/01 00:32:22;;;;;;;37.17;27.83;;;9.10;81.20;;;;;;5117165;28;20377;-46
2021/01/01 00:34:48;;;;;;;35.97;27.70;;;9.10;81.30;;;;;;5104754;28;20165;-45
2021/01/01 00:37:14;;;;;;;35.75;27.05;;;9.10;81.30;;;;;;5115206;28;20480;-47
2021/01/01 00:39:39;;;;;;;33.97;25.83;;;9.10;81.20;;;;;;5107315;28;20138;-49
2021/01/01 00:42:05;;;;;;;34.58;26.98;;;9.10;81.30;;;;;;5116056;28;20047;-45
2021/01/01 00:44:31;;;;;;;37.03;28.38;;;9.10;81.30;;;;;;5116553;28;20047;-49
2021/01/01 00:46:57;;;;;;;34.72;26.60;;;9.10;81.30;;;;;;5110859;28;20151;-40
2021/01/01 00:49:23;;;;;;;33.60;26.98;;;9.10;81.30;;;;;;5116836;28;20448;-50
2021/01/01 00:51:48;;;;;;;32.75;25.70;;;9.10;81.30;;;;;;5116437;28;20077;-44
2021/01/01 00:54:14;;;;;;;36.28;27.48;;;9.10;81.30;;;;;;5107437;28;20044;-51
2021/01/01 00:56:40;;;;;;;33.90;26.17;;;9.10;81.30;;;;;;5106829;28;20051;-45
2021/01/01 00:59:07;;;;;;;35.58;26.30;;;9.10;81.30;;;;;;5115004;28;20074;-45
2021/01/01 01:01:33;;;;;;;34.13;25.98;;;9.10;81.40;;;;;;5114996;28;20047;-46
2021/01/01 01:03:58;;;;;;;36.80;25.65;;;9.10;81.30;;;;;;5095716;28;20040;-45
2021/01/01 01:06:25;;;;;;;37.17;26.65;;;9.10;81.30;;;;;;5096078;28;20079;-47
2021/01/01 01:08:52;;;;;;;33.88;25.40;;;9.10;81.30;;;;;;5098386;28;20051;-47
2021/01/01 01:11:24;;;;;;;33.83;25.58;;;9.10;81.30;;;;;;5095991;28;20048;-47
2021/01/01 01:13:55;;;;;;;34.67;26.63;;;9.10;81.30;;;;;;5097941;28;20048;-42
2021/01/01 01:16:25;;;;;;;33.92;25.17;;;9.10;81.40;;;;;;5095253;28;20044;-41
2021/01/01 01:18:51;;;;;;;34.05;25.33;;;9.10;81.40;;;;;;5097055;28;20062;-50
2021/01/01 01:21:18;;;;;;;32.20;24.98;;;9.10;81.30;;;;;;5096061;28;20047;-42
2021/01/01 01:23:44;;;;;;;33.60;25.23;;;9.10;81.40;;;;;;5096905;28;20048;-41
2021/01/01 01:26:09;;;;;;;32.72;24.92;;;9.10;81.40;;;;;;5095291;28;20453;-43
2021/01/01 01:28:35;;;;;;;33.55;24.80;;;9.10;81.30;;;;;;5096184;28;20047;-41
2021/01/01 01:31:01;;;;;;;30.60;25.13;;;9.10;81.30;;;;;;5095403;28;20550;-44
2021/01/01 01:33:27;;;;;;;33.03;25.00;;;9.10;81.30;;;;;;5097758;28;20061;-42
2021/01/01 01:35:53;;;;;;;35.08;25.42;;;9.10;81.30;;;;;;5109271;28;20488;-42
2021/01/01 01:38:19;;;;;;;31.08;23.00;;;9.10;81.30;;;;;;5113238;28;20043;-45
2021/01/01 01:40:45;;;;;;;33.28;25.80;;;9.10;81.40;;;;;;5105004;28;20503;-47
2021/01/01 01:43:11;;;;;;;30.77;24.42;;;9.10;81.30;;;;;;5113301;28;20052;-44
2021/01/01 01:45:36;;;;;;;31.02;25.02;;;9.10;81.30;;;;;;5115611;28;20051;-44
2021/01/01 01:48:06;;;;;;;29.85;23.95;;;9.10;81.30;;;;;;5115458;28;20044;-43
2021/01/01 01:50:32;;;;;;;32.85;25.00;;;9.10;81.30;;;;;;5096432;28;20047;-47
2021/01/01 01:52:58;;;;;;;31.95;24.73;;;9.10;81.40;;;;;;5099132;28;20039;-45
2021/01/01 01:55:24;;;;;;;29.17;23.90;;;9.10;81.30;;;;;;5099631;28;20048;-41
2021/01/01 01:57:54;;;;;;;32.88;24.75;;;9.10;81.30;;;;;;5095002;28;20533;-47
2021/01/01 02:03:04;;;;;;;30.20;23.83;;;9.10;81.30;;;;;;5114986;28;20039;-47
2021/01/01 02:05:30;;;;;;;33.25;24.40;;;9.10;81.40;;;;;;5101493;28;20437;-50
2021/01/01 02:07:56;;;;;;;31.35;24.58;;;9.10;81.30;;;;;;5102343;28;20051;-45
2021/01/01 02:10:22;;;;;;;30.65;24.33;;;9.10;81.30;;;;;;5103596;28;20123;-47
2021/01/01 02:12:48;;;;;;;33.80;25.67;;;9.10;81.30;;;;;;5096752;28;20649;-42
2021/01/01 02:15:14;;;;;;;27.52;24.00;;;9.10;81.30;;;;;;5094685;28;20059;-48
2021/01/01 02:17:40;;;;;;;31.40;23.30;;;9.10;81.40;;;;;;5094278;28;20423;-46
2021/01/01 02:20:08;;;;;;;30.67;23.40;;;9.10;81.40;;;;;;5110850;28;20052;-47
2021/01/01 02:22:43;;;;;;;27.80;22.58;;;9.10;81.30;;;;;;5113326;28;20446;-42
2021/01/01 02:25:10;;;;;;;31.08;23.23;;;9.10;81.30;;;;;;5096978;28;20048;-48
2021/01/01 02:27:40;;;;;;;30.02;23.52;;;9.10;81.40;;;;;;5093636;28;20055;-44
2021/01/01 02:30:06;;;;;;;32.92;24.98;;;9.10;81.30;;;;;;5112688;28;20441;-44
2021/01/01 02:32:32;;;;;;;29.73;24.13;;;9.10;82.00;;;;;;5112753;28;20043;-44
2021/01/01 02:34:58;;;;;;;28.52;23.10;;;9.10;81.30;;;;;;5114365;28;20415;-48
2021/01/01 02:37:24;;;;;;;29.10;23.17;;;9.10;81.30;;;;;;5114866;28;20062;-45
2021/01/01 02:39:50;;;;;;;30.10;23.30;;;9.10;81.30;;;;;;5113979;28;20043;-48
2021/01/01 02:42:16;;;;;;;28.55;22.67;;;9.10;81.40;;;;;;5114445;28;20055;-51
2021/01/01 02:44:42;;;;;;;28.80;23.65;;;9.10;81.40;;;;;;5112949;28;20048;-44
2021/01/01 02:47:08;;;;;;;26.40;21.65;;;9.10;81.40;;;;;;5114624;28;20059;-43
2021/01/01 02:49:34;;;;;;;28.55;21.88;;;9.10;81.30;;;;;;5100097;28;20044;-42
2021/01/01 02:52:00;;;;;;;28.05;22.85;;;9.10;81.30;;;;;;5095126;28;20048;-47
2021/01/01 02:54:26;;;;;;;29.20;23.65;;;9.10;81.30;;;;;;5095136;28;20044;-43
2021/01/01 02:56:52;;;;;;;29.60;22.90;;;9.10;81.30;;;;;;5097863;28;20491;-40
2021/01/01 02:59:18;;;;;;;29.92;22.38;;;9.10;81.30;;;;;;5114170;28;20055;-48
2021/01/01 03:01:45;;;;;;;29.08;22.63;;;9.10;81.30;;;;;;5114257;28;20495;-46
2021/01/01 03:04:10;;;;;;;30.20;22.45;;;9.10;81.30;;;;;;5111933;28;20043;-39
2021/01/01 03:06:37;;;;;;;27.60;21.80;;;9.10;81.30;;;;;;5113720;28;20043;-45
2021/01/01 03:09:04;;;;;;;26.60;22.05;;;9.10;81.30;;;;;;5106276;28;20036;-42
2021/01/01 03:11:30;;;;;;;29.85;21.80;;;9.10;81.30;;;;;;5093746;28;20044;-47
2021/01/01 03:13:55;;;;;;;26.98;21.38;;;9.10;81.30;;;;;;5108647;28;20039;-46
2021/01/01 03:16:21;;;;;;;29.42;21.88;;;9.10;81.30;;;;;;5113925;28;20046;-49
2021/01/01 03:18:47;;;;;;;28.60;22.00;;;9.10;81.30;;;;;;5113649;28;20044;-48
2021/01/01 03:21:12;;;;;;;24.38;20.00;;;9.10;81.30;;;;;;5113841;28;20056;-44
2021/01/01 03:23:38;;;;;;;28.42;21.73;;;9.10;81.30;;;;;;5111722;28;20051;-41
2021/01/01 03:26:04;;;;;;;25.95;20.92;;;9.10;81.30;;;;;;5113184;28;20059;-43
2021/01/01 03:28:30;;;;;;;25.92;21.05;;;9.10;81.30;;;;;;5113197;28;20088;-47
2021/01/01 03:30:55;;;;;;;27.35;21.23;;;9.10;81.30;;;;;;5113643;28;20055;-45
2021/01/01 03:33:21;;;;;;;27.42;21.50;;;9.10;81.30;;;;;;5111536;28;20085;-41
2021/01/01 03:35:48;;;;;;;26.70;19.92;;;9.10;81.20;;;;;;5094113;28;20127;-42
2021/01/01 03:38:14;;;;;;;26.58;21.30;;;9.10;81.30;;;;;;5092782;28;20071;-45
2021/01/01 03:40:39;;;;;;;24.92;19.45;;;9.10;81.30;;;;;;5097989;28;20472;-45
2021/01/01 03:43:05;;;;;;;26.42;20.38;;;9.10;81.20;;;;;;5112544;28;20050;-47
2021/01/01 03:45:30;;;;;;;27.42;20.85;;;9.10;81.30;;;;;;5093979;28;20054;-46
2021/01/01 03:47:56;;;;;;;28.30;21.00;;;9.10;81.30;;;;;;5093381;28;20048;-41
2021/01/01 03:50:22;;;;;;;26.85;20.00;;;9.10;81.30;;;;;;5111240;28;20073;-48
2021/01/01 03:52:48;;;;;;;27.13;20.70;;;9.10;81.20;;;;;;5099745;28;20101;-44
2021/01/01 03:55:13;;;;;;;24.90;20.05;;;9.10;81.30;;;;;;5107799;28;20068;-47
2021/01/01 03:57:40;;;;;;;24.92;20.42;;;9.10;81.20;;;;;;5100219;28;20058;-42
2021/01/01 04:00:07;;;;;;;26.80;20.30;;;9.10;81.20;;;;;;5093025;28;20079;-42
2021/01/01 04:02:33;;;;;;;26.70;19.65;;;9.10;81.30;;;;;;5094071;28;20071;-42
2021/01/01 04:04:59;;;;;;;24.00;19.98;;;9.10;81.30;;;;;;5092933;28;20480;-46
2021/01/01 04:07:24;;;;;;;25.73;20.30;;;9.10;81.30;;;;;;5093902;28;20112;-43
2021/01/01 04:09:50;;;;;;;24.45;19.02;;;9.10;81.30;;;;;;5106849;28;20048;-48
2021/01/01 04:12:16;;;;;;;24.70;19.50;;;9.00;81.20;;;;;;5113352;28;20077;-47
2021/01/01 04:14:42;;;;;;;24.60;19.50;;;9.10;81.20;;;;;;5099904;28;20083;-42
2021/01/01 04:17:07;;;;;;;23.75;19.90;;;9.00;81.20;;;;;;5094026;28;20480;-44
2021/01/01 04:19:33;;;;;;;23.30;18.25;;;9.10;81.20;;;;;;5104637;28;20563;-49
2021/01/01 04:21:58;;;;;;;23.33;19.80;;;9.10;81.20;;;;;;5113010;28;20044;-48
2021/01/01 04:24:24;;;;;;;25.33;19.10;;;9.10;81.20;;;;;;5102234;28;20052;-46
2021/01/01 04:26:50;;;;;;;24.08;18.88;;;9.10;81.20;;;;;;5093635;28;20139;-39
2021/01/01 04:29:17;;;;;;;24.15;18.63;;;9.00;81.20;;;;;;5092786;28;20040;-42
2021/01/01 04:31:43;;;;;;;23.88;19.38;;;9.00;81.20;;;;;;5092587;28;20128;-44
2021/01/01 04:34:09;;;;;;;24.08;18.77;;;9.00;81.20;;;;;;5125179;28;20134;-39
2021/01/01 04:36:35;;;;;;;24.67;19.45;;;9.00;81.10;;;;;;5092644;28;20079;-40
2021/01/01 04:39:02;;;;;;;23.95;19.30;;;9.00;81.20;;;;;;5093872;28;20040;-42
2021/01/01 04:41:28;;;;;;;24.65;19.27;;;9.00;81.20;;;;;;5092653;28;20407;-45
2021/01/01 04:43:54;;;;;;;23.50;18.08;;;9.00;81.20;;;;;;5092700;28;20036;-42
2021/01/01 04:46:20;;;;;;;23.52;19.15;;;9.00;81.20;;;;;;5092627;28;20048;-46
2021/01/01 04:48:47;;;;;;;24.45;19.05;;;9.00;81.10;;;;;;5093664;28;20040;-42
2021/01/01 04:51:13;;;;;;;24.60;19.13;;;9.10;81.20;;;;;;5094973;28;20123;-41
2021/01/01 04:53:40;;;;;;;20.77;17.95;;;9.10;81.20;;;;;;5102606;28;20035;-43
2021/01/01 04:56:07;;;;;;;23.02;18.65;;;9.00;81.20;;;;;;5098208;28;20101;-42
2021/01/01 04:58:34;;;;;;;24.13;19.35;;;9.10;81.20;;;;;;5100044;28;20127;-41
2021/01/01 05:01:01;;;;;;;22.73;17.73;;;9.10;81.20;;;;;;5116004;28;20044;-41
2021/01/01 05:03:27;;;;;;;20.23;16.65;;;9.00;81.10;;;;;;5114857;28;20043;-43
2021/01/01 05:05:53;;;;;;;24.65;19.33;;;8.90;81.10;;;;;;5116056;28;20048;-43
2021/01/01 05:08:20;;;;;;;22.05;17.75;;;9.00;81.20;;;;;;5116458;28;20075;-41
2021/01/01 05:10:46;;;;;;;24.25;18.08;;;9.00;81.10;;;;;;5114451;28;20472;-42
2021/01/01 05:13:14;;;;;;;21.92;17.65;;;9.00;81.10;;;;;;5097455;28;20123;-43
2021/01/01 05:15:41;;;;;;;22.55;17.27;;;9.00;81.10;;;;;;5095813;28;20048;-46
2021/01/01 05:18:21;;;;;;;22.60;18.73;;;9.00;81.10;;;;;;5113152;28;20043;-47
2021/01/01 05:20:48;;;;;;;22.65;17.90;;;9.00;81.10;;;;;;5114563;28;20078;-43
2021/01/01 05:23:25;;;;;;;19.83;17.55;;;9.00;81.10;;;;;;5115009;28;20381;-46
2021/01/01 05:26:12;;;;;;;21.40;17.88;;;9.00;81.10;;;;;;5096491;28;20518;-50
2021/01/01 05:28:50;;;;;;;22.75;17.65;;;9.00;81.10;;;;;;5095584;28;20134;-41
2021/01/01 05:31:20;;;;;;;22.00;17.75;;;9.00;81.10;;;;;;5096602;28;20040;-48
2021/01/01 05:34:03;;;;;;;23.30;18.13;;;9.00;81.10;;;;;;5095647;28;20474;-44
2021/01/01 05:36:33;;;;;;;22.05;17.27;;;9.00;81.10;;;;;;5113448;28;20043;-47
2021/01/01 05:39:00;;;;;;;23.45;17.10;;;9.00;81.10;;;;;;5115569;28;20403;-40
2021/01/01 05:41:34;;;;;;;21.90;17.92;;;9.00;81.10;;;;;;5099030;28;20043;-43
2021/01/01 05:44:17;;;;;;;22.67;17.70;;;9.00;81.10;;;;;;5113360;28;20092;-47
2021/01/01 05:47:01;;;;;;;20.75;16.90;;;9.00;81.10;;;;;;5115666;28;20475;-42
2021/01/01 05:49:28;;;;;;;23.23;17.50;;;9.00;81.10;;;;;;5100814;28;20044;-42
2021/01/01 05:52:16;;;;;;;23.65;17.55;;;9.00;81.10;;;;;;5114100;28;20075;-45
2021/01/01 05:54:44;;;;;;;20.38;16.42;;;9.00;81.10;;;;;;5113565;28;20127;-45
2021/01/01 05:57:11;;;;;;;19.50;16.30;;;9.00;81.10;;;;;;5094992;28;20044;-42
2021/01/01 05:59:39;;;;;;;23.98;18.17;;;9.00;81.10;;;;;;5095310;28;20105;-42
2021/01/01 06:02:07;;;;;;;23.20;18.35;;;9.00;81.20;;;;;;5095036;28;20106;-42
2021/01/01 06:04:34;;;;;;;20.92;16.77;;;9.00;81.20;;;;;;5114283;28;20048;-42
2021/01/01 06:07:02;;;;;;;21.50;16.92;;;9.00;81.10;;;;;;5106699;28;20484;-46
2021/01/01 06:09:30;;;;;;;22.80;17.60;;;8.90;81.10;;;;;;5098014;28;20039;-42
2021/01/01 06:12:01;;;;;;;21.63;16.70;;;9.00;81.10;;;;;;5115133;28;20047;-45
2021/01/01 06:14:36;;;;;;;22.52;16.48;;;9.00;81.20;;;;;;5113553;28;20078;-42
2021/01/01 06:17:11;;;;;;;22.10;16.27;;;9.00;81.20;;;;;;5115182;28;20070;-45
2021/01/01 06:19:52;;;;;;;22.15;17.05;;;9.00;81.20;;;;;;5113401;28;20126;-50
2021/01/01 06:22:20;;;;;;;21.50;16.27;;;9.00;81.20;;;;;;5115104;28;20080;-46
2021/01/01 06:24:56;;;;;;;21.15;16.42;;;8.90;81.10;;;;;;5112742;28;20036;-50
2021/01/01 06:27:28;;;;;;;22.92;16.85;;;9.00;81.10;;;;;;5114385;28;20063;-45
2021/01/01 06:30:08;;;;;;;19.70;15.77;;;8.90;81.10;;;;;;5101944;28;20115;-46
2021/01/01 06:32:34;;;;;;;22.65;16.25;;;9.00;81.20;;;;;;5094598;28;20051;-42
2021/01/01 06:35:12;;;;;;;20.70;16.65;;;9.00;81.20;;;;;;5108401;28;20043;-46
2021/01/01 06:37:43;;;;;;;19.85;15.75;;;9.00;81.10;;;;;;5113560;28;20058;-45
2021/01/01 06:40:20;;;;;;;19.95;16.13;;;8.90;81.10;;;;;;5094093;28;20043;-45
2021/01/01 06:42:57;;;;;;;21.23;15.73;;;8.90;81.10;;;;;;5096406;28;20422;-47
2021/01/01 06:45:35;;;;;;;19.75;15.65;;;9.00;81.20;;;;;;5096468;28;20044;-46
2021/01/01 06:48:02;;;;;;;19.23;15.52;;;9.00;81.20;;;;;;5110960;28;20052;-45
2021/01/01 06:50:30;;;;;;;19.30;15.65;;;9.00;81.20;;;;;;5114295;28;20122;-47
2021/01/01 06:53:04;;;;;;;19.08;15.50;;;9.00;81.20;;;;;;5098130;28;20052;-45
2021/01/01 06:55:35;;;;;;;22.08;17.05;;;8.90;81.10;;;;;;5094759;28;20130;-49
2021/01/01 06:58:01;;;;;;;21.23;16.05;;;8.90;81.10;;;;;;5093891;28;20047;-45
2021/01/01 07:00:45;;;;;;;20.75;16.58;;;9.00;81.10;;;;;;5109305;28;20070;-41
2021/01/01 07:03:29;;;;;;;19.30;15.23;;;8.90;81.10;;;;;;5112384;28;20055;-42
2021/01/01 07:06:01;;;;;;;19.98;15.52;;;8.90;81.10;;;;;;5112209;28;20052;-45
2021/01/01 07:08:39;;;;;;;18.23;14.90;;;8.90;81.10;;;;;;5101721;28;20097;-44
2021/01/01 07:11:06;;;;;;;20.45;15.35;;;8.90;81.10;;;;;;5093470;28;20393;-43
2021/01/01 07:13:54;;;;;;;18.73;14.73;;;8.90;81.10;;;;;;5107526;28;20130;-39
2021/01/01 07:16:22;;;;;;;19.70;15.48;;;9.00;81.20;;;;;;5114247;28;20127;-40
2021/01/01 07:18:48;;;;;;;19.63;15.45;;;8.90;81.10;;;;;;5114091;28;20047;-43
2021/01/01 07:21:15;;;;;;;17.95;14.57;;;8.90;81.10;;;;;;5114184;28;20069;-47
2021/01/01 07:23:42;;;;;;;19.42;14.65;;;8.90;81.10;;;;;;5113741;28;20044;-44
2021/01/01 07:26:08;;;;;;;21.52;16.33;;;8.90;81.10;;;;;;5113351;28;20147;-43
2021/01/01 07:28:37;;;;;;;17.83;14.88;;;8.90;81.20;;;;;;5113665;28;20039;-40
2021/01/01 07:31:03;;;;;;;18.40;14.73;;;8.90;81.10;;;;;;5113738;28;20100;-41
2021/01/01 07:33:30;;;;;;;19.27;15.10;;;8.90;81.10;;;;;;5113539;28;20052;-41
2021/01/01 07:36:01;;;;;;;18.75;15.18;;;8.90;81.10;;;;;;5113512;28;20067;-43
2021/01/01 07:38:29;;;;;;;18.83;14.85;;;8.90;81.10;;;;;;5113088;28;20482;-41
2021/01/01 07:40:55;;;;;;;18.15;14.27;;;8.90;81.10;;;;;;5112655;28;20505;-42
2021/01/01 07:43:22;;;;;;;19.02;15.75;;;8.90;81.10;;;;;;5112769;28;20036;-46
2021/01/01 07:45:48;;;;;;;18.40;14.45;;;8.90;81.10;;;;;;5112577;28;20051;-42
2021/01/01 07:48:14;;;;;;;21.65;14.82;;;8.90;81.10;;;;;;5113174;28;20085;-41
2021/01/01 07:50:40;;;;;;;20.33;15.27;;;8.90;81.10;;;;;;5113273;28;20048;-46
2021/01/01 07:53:10;;;;;;;19.00;14.88;;;8.90;81.10;;;;;;5113507;28;20050;-45
2021/01/01 07:55:38;;;;;;;19.40;15.40;;;8.90;81.10;;;;;;5113255;27;20447;-45
2021/01/01 07:58:10;;;;;;;18.38;14.50;;;8.90;81.10;;;;;;5113215;28;20047;-43
2021/01/01 08:00:38;;;;;;;18.42;14.50;;;8.90;81.10;;;;;;5113591;28;20044;-42
2021/01/01 08:03:06;;;;;;;17.27;14.18;;;8.90;81.10;;;;;;5113669;28;20047;-41
2021/01/01 08:05:33;;;;;;;19.10;14.90;;;8.90;81.10;;;;;;5113323;28;20418;-52
2021/01/01 08:08:19;;;;;;;17.40;13.90;;;8.90;81.10;;;;;;5113016;28;20058;-52
2021/01/01 08:10:46;;;;;;;;;;;8.90;81.10;;;;;;5113739;28;20434;-49
2021/01/01 08:13:16;;;;;;;18.13;14.43;;;8.90;81.10;;;;;;5113185;28;20006;-49
2021/01/01 08:15:42;;;;;;;16.80;13.38;;;8.90;81.10;;;;;;5113523;28;20048;-46
2021/01/01 08:18:09;;;;;;;20.52;15.52;;;8.90;81.20;;;;;;5107122;28;20047;-45
2021/01/01 08:20:34;;;;;;;18.27;13.73;;;8.90;81.10;;;;;;5092913;28;20070;-52
2021/01/01 08:23:08;;;;;;;17.05;13.82;;;8.90;81.20;;;;;;5103063;28;20051;-42
2021/01/01 08:25:34;;;;;;;18.88;13.73;;;8.90;81.20;;;;;;5113615;28;20407;-44
2021/01/01 08:28:02;;;;;;;16.20;13.30;;;8.80;81.10;;;;;;5107278;28;20051;-41
2021/01/01 08:30:28;;;;;;;17.92;14.23;;;8.90;81.20;;;;;;5096278;28;20059;-43
2021/01/01 08:32:54;;;;;;;16.42;13.30;;;8.90;81.20;;;;;;5095923;28;20052;-42
2021/01/01 08:35:21;;;;;;;18.85;14.02;;;8.80;81.20;;;;;;5134518;27;20044;-45
2021/01/01 08:37:46;;;;;;;18.88;14.32;;;8.90;81.20;;;;;;5111955;28;20043;-43
2021/01/01 08:40:12;;;;;;;20.42;14.98;;;8.90;81.20;;;;;;5096111;28;20389;-45
2021/01/01 08:42:40;;;;;;;17.80;14.35;;;8.80;81.10;;;;;;5114473;28;20070;-44
2021/01/01 08:45:08;;;;;;;18.30;13.30;;;8.80;81.20;;;;;;5116077;28;20043;-47
2021/01/01 08:47:44;;;;;;;18.45;14.25;;;8.90;81.20;;;;;;5115514;28;20054;-42
2021/01/01 08:50:19;;;;;;;19.23;14.63;;;8.90;81.20;;;;;;5099268;28;20197;-41
2021/01/01 08:52:47;;;;;;;19.30;13.30;;;8.80;81.20;;;;;;5096317;28;20567;-48
2021/01/01 08:55:13;;;;;;;16.13;13.13;;;8.90;81.20;;;;;;5096369;28;20052;-46
2021/01/01 08:57:39;;;;;;;18.67;14.52;;;8.80;81.20;;;;;;5096251;28;20587;-46
2021/01/01 09:00:06;;;;;;;19.60;14.02;;;8.80;81.20;;;;;;5097007;28;20122;-41
2021/01/01 09:02:33;;;;;;;14.98;12.90;;;8.80;81.20;;;;;;5096183;28;20048;-41
2021/01/01 09:05:00;;;;;;;16.55;13.60;;;8.80;81.20;;;;;;5096075;28;20206;-42
2021/01/01 09:07:26;;;;;;;15.88;12.98;;;8.80;81.20;;;;;;5096327;28;20059;-47
2021/01/01 09:09:52;;;;;;;15.48;13.00;;;8.80;81.20;;;;;;5113198;28;20499;-42
2021/01/01 09:12:27;;;;;;;17.85;13.40;;;8.90;81.20;;;;;;5116095;28;20052;-46
2021/01/01 09:14:56;;;;;;;17.08;13.07;;;8.80;81.20;;;;;;5113638;28;20052;-49
2021/01/01 09:17:25;;;;;;;15.65;12.38;;;8.80;81.20;;;;;;5115754;28;20069;-46
2021/01/01 09:20:05;;;;;;;16.30;13.40;;;8.80;81.20;;;;;;5115667;28;20518;-44
2021/01/01 09:22:33;;;;;;;16.77;13.25;;;8.80;81.20;;;;;;5113975;28;20048;-48
2021/01/01 09:25:21;;;;;;;15.98;12.40;;;8.80;81.20;;;;;;5115555;28;20130;-48
2021/01/01 09:27:48;;;;;;;15.85;12.82;;;8.90;81.20;;;;;;5112800;28;20114;-48
2021/01/01 09:30:16;;;;;;;16.30;13.43;;;8.80;81.20;;;;;;5115657;28;20043;-43
2021/01/01 09:32:45;;;;;;;17.23;12.80;;;8.80;81.80;;;;;;5101625;28;20105;-45
2021/01/01 09:35:13;;;;;;;17.30;13.63;;;8.80;81.20;;;;;;5097506;28;20418;-50
2021/01/01 09:37:50;;;;;;;14.93;12.80;;;8.80;81.20;;;;;;5114664;28;20043;-48
2021/01/01 09:40:17;;;;;;;15.00;12.85;;;8.80;81.20;;;;;;5115891;28;20070;-55
2021/01/01 09:42:43;;;;;;;16.38;13.00;;;8.80;81.20;;;;;;5114064;28;20043;-52
2021/01/01 09:45:10;;;;;;;18.05;13.48;;;8.80;81.20;;;;;;5101619;28;20510;-55
2021/01/01 09:47:35;;;;;;;14.23;11.80;;;8.80;81.20;;;;;;5095099;28;20553;-54
2021/01/01 09:50:01;;;;;;;16.70;13.55;;;8.80;81.20;;;;;;5095434;28;20050;-54
2021/01/01 09:52:27;;;;;;;16.75;11.70;;;8.80;81.20;;;;;;5096291;28;20048;-51
2021/01/01 09:54:53;;;;;;;13.70;11.70;;;8.80;81.20;;;;;;5095268;28;20048;-47
2021/01/01 09:57:18;;;;;;;17.15;12.80;;;8.80;81.20;;;;;;5095057;28;20052;-54
2021/01/01 09:59:44;;;;;;;15.38;11.50;;;8.80;81.20;;;;;;5095314;28;20051;-52
2021/01/01 10:02:10;;;;;;;16.05;12.48;;;8.80;81.20;;;;;;5095085;28;20048;-54
2021/01/01 10:04:35;;;;;;;17.20;11.43;;;8.80;81.20;;;;;;5095930;28;20404;-53
2021/01/01 10:07:01;;;;;;;16.10;12.02;;;8.80;81.20;;;;;;5094799;28;20059;-46
2021/01/01 10:09:27;;;;;;;14.65;11.25;;;8.80;81.20;;;;;;5094978;28;20055;-54
2021/01/01 10:11:56;;;;;;;14.13;11.02;;;8.80;81.20;;;;;;5094896;28;20060;-52
2021/01/01 10:14:21;;;;;;;14.20;11.90;;;8.80;81.20;;;;;;5096118;28;20144;-55
2021/01/01 10:16:48;;;;;;;15.27;11.43;;;8.80;81.20;;;;;;5094382;28;20114;-53
2021/01/01 10:19:14;;;;;;;14.32;11.50;;;8.80;81.20;;;;;;5094786;28;20048;-58
2021/01/01 10:21:39;;;;;;;15.00;10.85;;;8.80;81.30;;;;;;5094712;28;20071;-57
2021/01/01 10:24:06;;;;;;;15.63;11.40;;;8.80;81.20;;;;;;5094601;28;20079;-53
2021/01/01 10:26:31;;;;;;;14.23;11.43;;;8.80;81.30;;;;;;5095242;28;20142;-55
2021/01/01 10:28:57;;;;;;;14.95;11.40;;;8.80;81.20;;;;;;5109934;28;20114;-55
2021/01/01 10:31:23;;;;;;;13.57;10.55;;;8.80;81.30;;;;;;5106302;28;20131;-54
2021/01/01 10:33:49;;;;;;;13.25;11.20;;;8.80;81.20;;;;;;5089945;28;20067;-48
2021/01/01 10:36:15;;;;;;;15.38;11.13;;;8.80;81.30;;;;;;5100339;28;20044;-47
2021/01/01 10:38:41;;;;;;;14.05;10.02;;;8.80;81.30;;;;;;5109302;28;20043;-49
2021/01/01 10:41:11;;;;;;;14.30;10.93;;;8.90;81.30;;;;;;5109257;28;20511;-55
2021/01/01 10:43:37;;;;;;;14.57;11.15;;;8.80;81.30;;;;;;5108573;28;20043;-50
2021/01/01 10:46:02;;;;;;;13.80;11.00;;;8.80;81.30;;;;;;5109002;28;20039;-45
2021/01/01 10:48:28;;;;;;;15.85;10.88;;;8.80;81.30;;;;;;5107956;28;20047;-53
2021/01/01 10:50:54;;;;;;;14.60;10.73;;;8.90;81.30;;;;;;5108886;28;20625;-47
2021/01/01 10:53:19;;;;;;;12.73;9.98;;;8.80;81.30;;;;;;5108596;28;20062;-44
2021/01/01 10:55:45;;;;;;;13.48;10.35;;;8.80;81.20;;;;;;5109229;28;20054;-48
2021/01/01 10:58:11;;;;;;;15.32;10.43;;;8.80;81.30;;;;;;5108721;28;20492;-49
2021/01/01 11:00:37;;;;;;;13.27;10.60;;;8.80;81.20;;;;;;5108329;28;20039;-48
2021/01/01 11:03:02;;;;;;;14.40;10.60;;;8.80;81.30;;;;;;5109186;28;20568;-55
2021/01/01 11:05:28;;;;;;;13.95;9.73;;;8.80;81.30;;;;;;5104282;28;20086;-48
2021/01/01 11:07:53;;;;;;;13.88;10.10;;;8.80;81.30;;;;;;5099335;28;20075;-52
2021/01/01 11:10:19;;;;;;;12.18;9.98;;;8.90;81.30;;;;;;5091798;28;20408;-55
2021/01/01 11:12:46;;;;;;;14.05;10.23;;;8.80;81.30;;;;;;5088240;28;20059;-53
2021/01/01 12:26:39;;;;;;;9.13;7.45;;;8.90;81.20;;;;;;5111701;28;20643;-58
2021/01/01 12:29:05;;;;;;;8.85;7.70;;;8.90;81.30;;;;;;5111802;28;20044;-54
2021/01/01 12:31:31;;;;;;;8.63;6.68;;;8.90;81.20;;;;;;5100975;28;20518;-54
2021/01/01 12:33:57;;;;;;;8.75;6.82;;;8.90;81.20;;;;;;5112050;28;20044;-55
2021/01/01 12:36:23;;;;;;;9.63;7.57;;;8.90;81.20;;;;;;5111432;28;20054;-52
2021/01/01 12:38:48;;;;;;;9.32;7.05;;;8.90;81.20;;;;;;5110917;28;20047;-53
2021/01/01 12:41:14;;;;;;;8.45;6.65;;;8.90;81.20;;;;;;5112505;28;20075;-52
2021/01/01 12:43:40;;;;;;;9.57;7.25;;;8.90;81.30;;;;;;5112772;28;20047;-53
2021/01/01 12:46:06;;;;;;;8.80;7.43;;;8.90;81.20;;;;;;5112035;28;20081;-55
2021/01/01 12:48:32;;;;;;;8.98;7.28;;;8.90;81.30;;;;;;5112466;28;20094;-46
2021/01/01 12:50:57;;;;;;;8.35;7.05;;;8.90;81.20;;;;;;5092819;28;20040;-52
2021/01/01 12:53:23;;;;;;;10.25;6.95;;;8.90;81.20;;;;;;5101356;28;20071;-48
2021/01/01 12:55:49;;;;;;;9.32;7.22;;;8.90;81.30;;;;;;5112769;28;20468;-45
2021/01/01 12:58:15;;;;;;;8.45;6.65;;;8.90;81.20;;;;;;5113058;28;20043;-55
2021/01/01 13:00:40;;;;;;;8.98;7.50;;;8.90;81.20;;;;;;5098048;28;20051;-47
2021/01/01 13:03:06;;;;;;;7.38;6.43;;;8.90;81.20;;;;;;5092663;28;20048;-45
2021/01/01 13:05:32;;;;;;;8.65;6.63;;;8.90;81.30;;;;;;5112146;28;20419;-49
2021/01/01 13:07:57;;;;;;;8.05;6.07;;;8.90;81.20;;;;;;5112745;28;20044;-47
2021/01/01 13:10:23;;;;;;;8.30;5.90;;;8.90;81.20;;;;;;5111107;28;20131;-50
2021/01/01 13:12:49;;;;;;;8.73;6.38;;;8.90;81.80;;;;;;5106756;28;20071;-49
2021/01/01 13:15:15;;;;;;;8.48;6.68;;;8.90;81.20;;;;;;5098933;28;20055;-52
2021/01/01 13:17:40;;;;;;;7.28;6.15;;;8.90;81.20;;;;;;5096204;28;20047;-51
2021/01/01 13:20:07;;;;;;;7.95;6.80;;;8.90;81.20;;;;;;5095262;28;20040;-44
2021/01/01 13:22:32;;;;;;;9.50;6.82;;;8.90;81.20;;;;;;5096696;28;20047;-47
2021/01/01 13:24:58;;;;;;;7.25;5.97;;;8.90;81.20;;;;;;5096036;28;20051;-45
2021/01/01 13:27:25;;;;;;;8.63;6.03;;;8.90;81.20;;;;;;5094274;28;20523;-52
2021/01/01 13:29:53;;;;;;;8.80;6.43;;;9.00;81.30;;;;;;5095684;28;20557;-52
2021/01/01 13:32:18;;;;;;;8.23;6.15;;;9.00;81.20;;;;;;5096749;28;20056;-44
2021/01/01 13:34:44;;;;;;;8.02;6.75;;;9.00;81.20;;;;;;5109605;28;20049;-48
2021/01/01 13:37:11;;;;;;;7.03;6.00;;;9.00;81.20;;;;;;5115891;28;20135;-44
2021/01/01 13:39:36;;;;;;;8.63;6.60;;;9.00;81.20;;;;;;5115951;27;20063;-56
2021/01/01 13:42:02;;;;;;;7.40;5.38;;;9.00;81.20;;;;;;5112875;28;20490;-53
2021/01/01 13:44:28;;;;;;;8.20;6.10;;;8.90;81.10;;;;;;5115752;28;20097;-45
2021/01/01 13:46:53;;;;;;;8.60;5.65;;;9.00;81.20;;;;;;5115898;28;20377;-46
2021/01/01 13:49:19;;;;;;;7.57;5.53;;;9.00;81.20;;;;;;5114961;28;20071;-45
2021/01/01 13:51:45;;;;;;;6.80;5.72;;;9.00;81.20;;;;;;5114171;28;20098;-49
2021/01/01 13:54:10;;;;;;;6.25;5.30;;;9.00;81.20;;;;;;5100141;28;20100;-48
2021/01/01 13:56:38;;;;;;;8.40;6.13;;;9.00;81.20;;;;;;5110674;28;20491;-47